sensor_id;sensor_type;location;lat;lon;timestamp;temperature;humidity
5364;DHT22;2705;41.410;2.160;2024-03-02T00:00:54;13.90;99.90
5364;DHT22;2705;41.410;2.160;2024-03-02T00:03:23;13.90;99.90
5364;DHT22;2705;41.410;2.160;2024-03-02T00:05:52;13.60;99.90
5364;DHT22;2705;41.410;2.160;2024-03-02T00:08:23;13.50;99.90
5364;DHT22;2705;41.410;2.160;2024-03-02T00:10:53;13.60;99.90
5364;DHT22;2705;41.410;2.160;2024-03-02T00:13:27;13.60;99.90
5364;DHT22;2705;41.410;2.160;2024-03-02T00:15:57;13.60;99.90
5364;DHT22;2705;41.410;2.160;2024-03-02T00:18:27;13.50;99.90
5364;DHT22;2705;41.410;2.160;2024-03-02T00:20:56;13.50;99.90
5364;DHT22;2705;41.410;2.160;2024-03-02T00:23:27;13.50;99.90
5364;DHT22;2705;41.410;2.160;2024-03-02T00:25:56;13.60;99.90
5364;DHT22;2705;41.410;2.160;2024-03-02T00:28:27;13.60;99.90
5364;DHT22;2705;41.410;2.160;2024-03-02T00:30:58;13.50;99.90
5364;DHT22;2705;41.410;2.160;2024-03-02T00:33:27;13.60;99.90
5364;DHT22;2705;41.410;2.160;2024-03-02T00:35:56;13.60;99.90
5364;DHT22;2705;41.410;2.160;2024-03-02T00:38:27;13.30;99.90
5364;DHT22;2705;41.410;2.160;2024-03-02T00:40:57;13.20;99.90
5364;DHT22;2705;41.410;2.160;2024-03-02T00:43:41;13.10;99.90
5364;DHT22;2705;41.410;2.160;2024-03-02T00:46:18;13.00;99.90
5364;DHT22;2705;41.410;2.160;2024-03-02T00:48:53;13.10;99.90
5364;DHT22;2705;41.410;2.160;2024-03-02T00:51:24;13.00;99.90
5364;DHT22;2705;41.410;2.160;2024-03-02T00:53:54;12.90;99.90
5364;DHT22;2705;41.410;2.160;2024-03-02T00:56:24;12.90;99.90
5364;DHT22;2705;41.410;2.160;2024-03-02T00:58:55;12.80;99.90
5364;DHT22;2705;41.410;2.160;2024-03-02T01:01:24;12.90;99.90
5364;DHT22;2705;41.410;2.160;2024-03-02T01:03:53;13.00;99.90
5364;DHT22;2705;41.410;2.160;2024-03-02T01:06:22;12.90;99.90
5364;DHT22;2705;41.410;2.160;2024-03-02T01:08:51;12.90;99.90
5364;DHT22;2705;41.410;2.160;2024-03-02T01:11:20;12.90;99.90
5364;DHT22;2705;41.410;2.160;2024-03-02T01:13:51;12.90;99.90
5364;DHT22;2705;41.410;2.160;2024-03-02T01:16:22;12.70;99.90
5364;DHT22;2705;41.410;2.160;2024-03-02T01:18:50;12.80;99.90
5364;DHT22;2705;41.410;2.160;2024-03-02T01:21:20;12.90;99.90
5364;DHT22;2705;41.410;2.160;2024-03-02T01:23:49;12.90;99.90
5364;DHT22;2705;41.410;2.160;2024-03-02T01:26:18;13.00;99.90
5364;DHT22;2705;41.410;2.160;2024-03-02T01:28:48;13.10;99.90
5364;DHT22;2705;41.410;2.160;2024-03-02T01:31:16;13.10;99.90
5364;DHT22;2705;41.410;2.160;2024-03-02T01:33:46;13.40;99.90
5364;DHT22;2705;41.410;2.160;2024-03-02T01:36:15;13.40;99.90
5364;DHT22;2705;41.410;2.160;2024-03-02T01:38:44;13.30;99.90
5364;DHT22;2705;41.410;2.160;2024-03-02T01:41:13;13.10;99.90
5364;DHT22;2705;41.410;2.160;2024-03-02T01:43:42;13.00;99.90
5364;DHT22;2705;41.410;2.160;2024-03-02T01:46:11;13.00;99.90
5364;DHT22;2705;41.410;2.160;2024-03-02T01:48:40;12.90;99.90
5364;DHT22;2705;41.410;2.160;2024-03-02T01:51:10;13.00;99.90
5364;DHT22;2705;41.410;2.160;2024-03-02T01:53:39;12.80;99.90
5364;DHT22;2705;41.410;2.160;2024-03-02T01:56:08;12.70;99.90
5364;DHT22;2705;41.410;2.160;2024-03-02T01:58:37;12.60;99.90
5364;DHT22;2705;41.410;2.160;2024-03-02T02:01:05;12.70;99.90
5364;DHT22;2705;41.410;2.160;2024-03-02T02:03:34;12.70;99.90
5364;DHT22;2705;41.410;2.160;2024-03-02T02:06:04;12.70;99.90
5364;DHT22;2705;41.410;2.160;2024-03-02T02:08:34;12.70;99.90
5364;DHT22;2705;41.410;2.160;2024-03-02T02:11:05;12.50;99.90
5364;DHT22;2705;41.410;2.160;2024-03-02T02:13:33;12.60;99.90
5364;DHT22;2705;41.410;2.160;2024-03-02T02:16:06;12.80;99.90
5364;DHT22;2705;41.410;2.160;2024-03-02T02:18:34;12.80;99.90
5364;DHT22;2705;41.410;2.160;2024-03-02T02:21:04;12.70;99.90
5364;DHT22;2705;41.410;2.160;2024-03-02T02:23:34;12.70;99.90
5364;DHT22;2705;41.410;2.160;2024-03-02T02:26:03;12.80;99.90
5364;DHT22;2705;41.410;2.160;2024-03-02T02:28:32;12.90;99.90
5364;DHT22;2705;41.410;2.160;2024-03-02T02:31:00;13.30;99.90
5364;DHT22;2705;41.410;2.160;2024-03-02T02:33:30;13.60;99.90
5364;DHT22;2705;41.410;2.160;2024-03-02T02:35:59;13.60;99.90
5364;DHT22;2705;41.410;2.160;2024-03-02T02:38:27;13.70;99.90
5364;DHT22;2705;41.410;2.160;2024-03-02T02:40:58;13.60;99.90
5364;DHT22;2705;41.410;2.160;2024-03-02T02:43:26;13.60;99.90
5364;DHT22;2705;41.410;2.160;2024-03-02T02:45:55;13.50;99.90
5364;DHT22;2705;41.410;2.160;2024-03-02T02:48:24;13.40;99.90
5364;DHT22;2705;41.410;2.160;2024-03-02T02:50:52;13.50;99.90
5364;DHT22;2705;41.410;2.160;2024-03-02T02:53:21;13.50;99.90
5364;DHT22;2705;41.410;2.160;2024-03-02T02:55:50;13.40;99.90
5364;DHT22;2705;41.410;2.160;2024-03-02T02:58:20;13.60;99.90
5364;DHT22;2705;41.410;2.160;2024-03-02T03:00:49;13.70;99.90
5364;DHT22;2705;41.410;2.160;2024-03-02T03:03:18;13.90;99.90
5364;DHT22;2705;41.410;2.160;2024-03-02T03:05:47;13.70;99.90
5364;DHT22;2705;41.410;2.160;2024-03-02T03:08:15;13.50;99.90
5364;DHT22;2705;41.410;2.160;2024-03-02T03:10:44;13.40;99.90
5364;DHT22;2705;41.410;2.160;2024-03-02T03:13:13;13.40;99.90
5364;DHT22;2705;41.410;2.160;2024-03-02T03:15:43;13.40;99.90
5364;DHT22;2705;41.410;2.160;2024-03-02T03:18:12;13.50;99.90
5364;DHT22;2705;41.410;2.160;2024-03-02T03:20:41;13.40;99.90
5364;DHT22;2705;41.410;2.160;2024-03-02T03:23:10;13.60;99.90
5364;DHT22;2705;41.410;2.160;2024-03-02T03:25:42;13.70;99.90
5364;DHT22;2705;41.410;2.160;2024-03-02T03:28:11;13.60;99.90
5364;DHT22;2705;41.410;2.160;2024-03-02T03:30:39;13.40;99.90
5364;DHT22;2705;41.410;2.160;2024-03-02T03:33:10;13.30;99.90
5364;DHT22;2705;41.410;2.160;2024-03-02T03:35:38;13.30;99.90
5364;DHT22;2705;41.410;2.160;2024-03-02T03:38:07;13.30;99.90
5364;DHT22;2705;41.410;2.160;2024-03-02T03:40:36;13.20;99.90
5364;DHT22;2705;41.410;2.160;2024-03-02T03:43:05;13.00;99.90
5364;DHT22;2705;41.410;2.160;2024-03-02T03:45:33;12.90;99.90
5364;DHT22;2705;41.410;2.160;2024-03-02T03:48:02;12.90;99.90
5364;DHT22;2705;41.410;2.160;2024-03-02T03:50:33;12.80;99.90
5364;DHT22;2705;41.410;2.160;2024-03-02T03:53:02;12.90;99.90
5364;DHT22;2705;41.410;2.160;2024-03-02T03:55:30;12.90;99.90
5364;DHT22;2705;41.410;2.160;2024-03-02T03:57:59;12.80;99.90
5364;DHT22;2705;41.410;2.160;2024-03-02T04:00:28;12.70;99.90
5364;DHT22;2705;41.410;2.160;2024-03-02T04:02:57;12.90;99.90
5364;DHT22;2705;41.410;2.160;2024-03-02T04:05:25;12.90;99.90
5364;DHT22;2705;41.410;2.160;2024-03-02T04:07:56;13.10;99.90
5364;DHT22;2705;41.410;2.160;2024-03-02T04:10:24;13.20;99.90
5364;DHT22;2705;41.410;2.160;2024-03-02T04:12:53;13.20;99.90
5364;DHT22;2705;41.410;2.160;2024-03-02T04:15:22;13.40;99.90
5364;DHT22;2705;41.410;2.160;2024-03-02T04:17:51;13.30;99.90
5364;DHT22;2705;41.410;2.160;2024-03-02T04:20:19;13.10;99.90
5364;DHT22;2705;41.410;2.160;2024-03-02T04:22:48;13.20;99.90
5364;DHT22;2705;41.410;2.160;2024-03-02T04:25:18;13.30;99.90
5364;DHT22;2705;41.410;2.160;2024-03-02T04:27:47;13.60;99.90
5364;DHT22;2705;41.410;2.160;2024-03-02T04:30:16;13.50;99.90
5364;DHT22;2705;41.410;2.160;2024-03-02T04:32:45;13.50;99.90
5364;DHT22;2705;41.410;2.160;2024-03-02T04:35:15;13.50;99.90
5364;DHT22;2705;41.410;2.160;2024-03-02T04:37:43;13.70;99.90
5364;DHT22;2705;41.410;2.160;2024-03-02T04:40:12;13.60;99.90
5364;DHT22;2705;41.410;2.160;2024-03-02T04:42:42;13.60;99.90
5364;DHT22;2705;41.410;2.160;2024-03-02T04:45:11;13.60;99.90
5364;DHT22;2705;41.410;2.160;2024-03-02T04:47:40;13.60;99.90
5364;DHT22;2705;41.410;2.160;2024-03-02T04:50:09;13.50;99.90
5364;DHT22;2705;41.410;2.160;2024-03-02T04:52:38;13.40;99.90
5364;DHT22;2705;41.410;2.160;2024-03-02T04:55:06;13.20;99.90
5364;DHT22;2705;41.410;2.160;2024-03-02T04:57:48;13.40;99.90
5364;DHT22;2705;41.410;2.160;2024-03-02T05:00:18;13.40;99.90
5364;DHT22;2705;41.410;2.160;2024-03-02T05:02:48;13.20;99.90
5364;DHT22;2705;41.410;2.160;2024-03-02T05:05:16;13.30;99.90
5364;DHT22;2705;41.410;2.160;2024-03-02T05:07:45;13.10;99.90
5364;DHT22;2705;41.410;2.160;2024-03-02T05:10:14;13.20;99.90
5364;DHT22;2705;41.410;2.160;2024-03-02T05:12:43;13.20;99.90
5364;DHT22;2705;41.410;2.160;2024-03-02T05:15:29;13.10;99.90
5364;DHT22;2705;41.410;2.160;2024-03-02T05:17:59;13.00;99.90
5364;DHT22;2705;41.410;2.160;2024-03-02T05:20:30;12.90;99.90
5364;DHT22;2705;41.410;2.160;2024-03-02T05:22:59;12.90;99.90
5364;DHT22;2705;41.410;2.160;2024-03-02T05:25:27;12.70;99.90
5364;DHT22;2705;41.410;2.160;2024-03-02T05:27:56;12.60;99.90
5364;DHT22;2705;41.410;2.160;2024-03-02T05:30:25;12.60;99.90
5364;DHT22;2705;41.410;2.160;2024-03-02T05:32:55;12.60;99.90
5364;DHT22;2705;41.410;2.160;2024-03-02T05:35:25;12.80;99.90
5364;DHT22;2705;41.410;2.160;2024-03-02T05:37:54;12.70;99.90
5364;DHT22;2705;41.410;2.160;2024-03-02T05:40:23;12.50;99.90
5364;DHT22;2705;41.410;2.160;2024-03-02T05:42:51;12.50;99.90
5364;DHT22;2705;41.410;2.160;2024-03-02T05:45:20;12.50;99.90
5364;DHT22;2705;41.410;2.160;2024-03-02T05:47:49;12.50;99.90
5364;DHT22;2705;41.410;2.160;2024-03-02T05:50:19;12.50;99.90
5364;DHT22;2705;41.410;2.160;2024-03-02T05:52:48;12.50;99.90
5364;DHT22;2705;41.410;2.160;2024-03-02T05:55:17;12.50;99.90
5364;DHT22;2705;41.410;2.160;2024-03-02T05:57:45;12.40;99.90
5364;DHT22;2705;41.410;2.160;2024-03-02T06:00:26;12.40;99.90
5364;DHT22;2705;41.410;2.160;2024-03-02T06:02:55;12.40;99.90
5364;DHT22;2705;41.410;2.160;2024-03-02T06:05:25;12.40;99.90
5364;DHT22;2705;41.410;2.160;2024-03-02T06:07:54;12.40;99.90
5364;DHT22;2705;41.410;2.160;2024-03-02T06:10:25;12.60;99.90
5364;DHT22;2705;41.410;2.160;2024-03-02T06:12:53;12.60;99.90
5364;DHT22;2705;41.410;2.160;2024-03-02T06:15:22;12.50;99.90
5364;DHT22;2705;41.410;2.160;2024-03-02T06:17:51;12.40;99.90
5364;DHT22;2705;41.410;2.160;2024-03-02T06:20:20;12.30;99.90
5364;DHT22;2705;41.410;2.160;2024-03-02T06:22:50;12.30;99.90
5364;DHT22;2705;41.410;2.160;2024-03-02T06:25:19;12.20;99.90
5364;DHT22;2705;41.410;2.160;2024-03-02T06:27:48;12.10;99.90
5364;DHT22;2705;41.410;2.160;2024-03-02T06:30:16;12.30;99.90
5364;DHT22;2705;41.410;2.160;2024-03-02T06:32:45;12.20;99.90
5364;DHT22;2705;41.410;2.160;2024-03-02T06:35:13;12.00;99.90
5364;DHT22;2705;41.410;2.160;2024-03-02T06:37:42;12.20;99.90
5364;DHT22;2705;41.410;2.160;2024-03-02T06:40:12;12.10;99.90
5364;DHT22;2705;41.410;2.160;2024-03-02T06:42:40;12.00;99.90
5364;DHT22;2705;41.410;2.160;2024-03-02T06:45:09;12.30;99.90
5364;DHT22;2705;41.410;2.160;2024-03-02T06:47:38;12.40;99.90
5364;DHT22;2705;41.410;2.160;2024-03-02T06:50:07;12.30;99.90
5364;DHT22;2705;41.410;2.160;2024-03-02T06:52:36;12.30;99.90
5364;DHT22;2705;41.410;2.160;2024-03-02T06:55:06;12.40;99.90
5364;DHT22;2705;41.410;2.160;2024-03-02T06:57:36;12.30;99.90
5364;DHT22;2705;41.410;2.160;2024-03-02T07:00:06;12.30;99.90
5364;DHT22;2705;41.410;2.160;2024-03-02T07:02:36;12.50;99.90
5364;DHT22;2705;41.410;2.160;2024-03-02T07:05:05;12.60;99.90
5364;DHT22;2705;41.410;2.160;2024-03-02T07:07:34;12.50;99.90
5364;DHT22;2705;41.410;2.160;2024-03-02T07:10:04;12.50;99.90
5364;DHT22;2705;41.410;2.160;2024-03-02T07:12:34;12.50;99.90
5364;DHT22;2705;41.410;2.160;2024-03-02T07:15:05;12.50;99.90
5364;DHT22;2705;41.410;2.160;2024-03-02T07:17:56;12.70;99.90
5364;DHT22;2705;41.410;2.160;2024-03-02T07:20:25;12.60;99.90
5364;DHT22;2705;41.410;2.160;2024-03-02T07:22:54;12.80;99.90
5364;DHT22;2705;41.410;2.160;2024-03-02T07:25:23;12.90;99.90
5364;DHT22;2705;41.410;2.160;2024-03-02T07:27:55;13.20;99.90
5364;DHT22;2705;41.410;2.160;2024-03-02T07:30:25;13.30;99.90
5364;DHT22;2705;41.410;2.160;2024-03-02T07:32:56;13.20;99.90
5364;DHT22;2705;41.410;2.160;2024-03-02T07:35:26;13.20;99.90
5364;DHT22;2705;41.410;2.160;2024-03-02T07:37:55;13.30;99.90
5364;DHT22;2705;41.410;2.160;2024-03-02T07:40:24;13.40;99.90
5364;DHT22;2705;41.410;2.160;2024-03-02T07:42:53;13.40;99.90
5364;DHT22;2705;41.410;2.160;2024-03-02T07:45:22;13.50;99.90
5364;DHT22;2705;41.410;2.160;2024-03-02T07:47:52;13.70;99.90
5364;DHT22;2705;41.410;2.160;2024-03-02T07:50:21;13.90;99.90
5364;DHT22;2705;41.410;2.160;2024-03-02T07:52:50;14.10;99.90
5364;DHT22;2705;41.410;2.160;2024-03-02T07:55:19;14.20;99.90
5364;DHT22;2705;41.410;2.160;2024-03-02T07:57:48;14.20;99.90
5364;DHT22;2705;41.410;2.160;2024-03-02T08:00:17;14.20;99.90
5364;DHT22;2705;41.410;2.160;2024-03-02T08:02:46;14.30;99.90
5364;DHT22;2705;41.410;2.160;2024-03-02T08:05:16;14.40;99.90
5364;DHT22;2705;41.410;2.160;2024-03-02T08:07:46;14.50;99.90
5364;DHT22;2705;41.410;2.160;2024-03-02T08:10:15;14.50;99.90
5364;DHT22;2705;41.410;2.160;2024-03-02T08:12:44;14.50;99.90
5364;DHT22;2705;41.410;2.160;2024-03-02T08:15:13;14.50;99.90
5364;DHT22;2705;41.410;2.160;2024-03-02T08:17:41;14.70;99.90
5364;DHT22;2705;41.410;2.160;2024-03-02T08:20:17;14.70;99.90
5364;DHT22;2705;41.410;2.160;2024-03-02T08:22:47;14.70;99.90
5364;DHT22;2705;41.410;2.160;2024-03-02T08:25:16;14.70;99.90
5364;DHT22;2705;41.410;2.160;2024-03-02T08:27:44;14.80;99.90
5364;DHT22;2705;41.410;2.160;2024-03-02T08:30:14;14.80;99.90
5364;DHT22;2705;41.410;2.160;2024-03-02T08:32:43;14.80;99.90
5364;DHT22;2705;41.410;2.160;2024-03-02T08:35:12;14.80;99.90
5364;DHT22;2705;41.410;2.160;2024-03-02T08:37:42;14.60;99.90
5364;DHT22;2705;41.410;2.160;2024-03-02T08:40:12;14.70;99.90
5364;DHT22;2705;41.410;2.160;2024-03-02T08:42:45;14.70;99.90
5364;DHT22;2705;41.410;2.160;2024-03-02T08:45:14;14.80;99.90
5364;DHT22;2705;41.410;2.160;2024-03-02T08:47:43;14.90;99.90
5364;DHT22;2705;41.410;2.160;2024-03-02T08:50:12;15.00;99.90
5364;DHT22;2705;41.410;2.160;2024-03-02T08:52:40;15.00;99.90
5364;DHT22;2705;41.410;2.160;2024-03-02T08:55:11;15.20;99.90
5364;DHT22;2705;41.410;2.160;2024-03-02T08:57:40;15.20;99.90
5364;DHT22;2705;41.410;2.160;2024-03-02T09:00:10;15.10;99.90
5364;DHT22;2705;41.410;2.160;2024-03-02T09:02:39;15.20;99.90
5364;DHT22;2705;41.410;2.160;2024-03-02T09:05:08;15.30;99.90
5364;DHT22;2705;41.410;2.160;2024-03-02T09:07:37;15.20;99.90
5364;DHT22;2705;41.410;2.160;2024-03-02T09:10:06;15.40;99.90
5364;DHT22;2705;41.410;2.160;2024-03-02T09:12:37;15.60;99.90
5364;DHT22;2705;41.410;2.160;2024-03-02T09:15:07;15.60;99.90
5364;DHT22;2705;41.410;2.160;2024-03-02T09:17:36;15.70;99.90
5364;DHT22;2705;41.410;2.160;2024-03-02T09:20:06;15.70;99.90
5364;DHT22;2705;41.410;2.160;2024-03-02T09:22:35;15.80;99.90
5364;DHT22;2705;41.410;2.160;2024-03-02T09:25:04;15.80;99.90
5364;DHT22;2705;41.410;2.160;2024-03-02T09:27:36;15.90;99.90
5364;DHT22;2705;41.410;2.160;2024-03-02T09:30:07;15.70;99.90
5364;DHT22;2705;41.410;2.160;2024-03-02T09:32:37;15.90;99.90
5364;DHT22;2705;41.410;2.160;2024-03-02T09:35:06;16.00;99.90
5364;DHT22;2705;41.410;2.160;2024-03-02T09:37:36;16.10;99.90
5364;DHT22;2705;41.410;2.160;2024-03-02T09:40:05;16.10;99.90
5364;DHT22;2705;41.410;2.160;2024-03-02T09:42:34;16.30;99.90
5364;DHT22;2705;41.410;2.160;2024-03-02T09:45:04;16.40;99.90
5364;DHT22;2705;41.410;2.160;2024-03-02T09:47:35;16.40;99.90
5364;DHT22;2705;41.410;2.160;2024-03-02T09:50:04;16.20;99.90
5364;DHT22;2705;41.410;2.160;2024-03-02T09:52:33;16.30;99.90
5364;DHT22;2705;41.410;2.160;2024-03-02T09:55:03;16.50;99.90
5364;DHT22;2705;41.410;2.160;2024-03-02T09:57:33;16.60;99.90
5364;DHT22;2705;41.410;2.160;2024-03-02T10:00:04;16.70;99.90
5364;DHT22;2705;41.410;2.160;2024-03-02T10:02:34;16.70;99.90
5364;DHT22;2705;41.410;2.160;2024-03-02T10:05:03;16.80;99.90
5364;DHT22;2705;41.410;2.160;2024-03-02T10:07:32;16.80;99.90
5364;DHT22;2705;41.410;2.160;2024-03-02T10:10:12;16.90;99.90
5364;DHT22;2705;41.410;2.160;2024-03-02T10:12:40;17.00;99.90
5364;DHT22;2705;41.410;2.160;2024-03-02T10:15:09;17.20;99.90
5364;DHT22;2705;41.410;2.160;2024-03-02T10:17:40;17.20;99.90
5364;DHT22;2705;41.410;2.160;2024-03-02T10:20:21;17.30;99.90
5364;DHT22;2705;41.410;2.160;2024-03-02T10:22:50;17.40;99.90
5364;DHT22;2705;41.410;2.160;2024-03-02T10:25:29;17.60;99.90
5364;DHT22;2705;41.410;2.160;2024-03-02T10:28:13;17.60;99.90
5364;DHT22;2705;41.410;2.160;2024-03-02T10:30:43;17.80;99.90
5364;DHT22;2705;41.410;2.160;2024-03-02T10:33:18;17.80;99.90
5364;DHT22;2705;41.410;2.160;2024-03-02T10:35:47;18.00;99.90
5364;DHT22;2705;41.410;2.160;2024-03-02T10:38:17;18.10;99.90
5364;DHT22;2705;41.410;2.160;2024-03-02T10:40:46;18.00;99.90
5364;DHT22;2705;41.410;2.160;2024-03-02T10:43:15;18.00;99.90
5364;DHT22;2705;41.410;2.160;2024-03-02T10:45:46;17.90;99.90
5364;DHT22;2705;41.410;2.160;2024-03-02T10:48:19;17.70;99.90
5364;DHT22;2705;41.410;2.160;2024-03-02T10:50:49;17.70;99.90
5364;DHT22;2705;41.410;2.160;2024-03-02T10:53:18;17.70;99.90
5364;DHT22;2705;41.410;2.160;2024-03-02T10:55:47;17.70;99.90
5364;DHT22;2705;41.410;2.160;2024-03-02T10:58:21;17.70;99.90
5364;DHT22;2705;41.410;2.160;2024-03-02T11:00:50;17.70;99.90
5364;DHT22;2705;41.410;2.160;2024-03-02T11:03:21;17.80;99.90
5364;DHT22;2705;41.410;2.160;2024-03-02T11:05:50;17.70;99.90
5364;DHT22;2705;41.410;2.160;2024-03-02T11:08:19;17.60;99.90
5364;DHT22;2705;41.410;2.160;2024-03-02T11:10:50;17.60;99.90
5364;DHT22;2705;41.410;2.160;2024-03-02T11:13:20;17.90;99.90
5364;DHT22;2705;41.410;2.160;2024-03-02T11:15:51;18.00;99.90
5364;DHT22;2705;41.410;2.160;2024-03-02T11:18:24;18.00;99.90
5364;DHT22;2705;41.410;2.160;2024-03-02T11:20:54;17.90;99.90
5364;DHT22;2705;41.410;2.160;2024-03-02T11:23:31;17.90;99.90
5364;DHT22;2705;41.410;2.160;2024-03-02T11:26:19;17.70;99.90
5364;DHT22;2705;41.410;2.160;2024-03-02T11:28:48;17.80;99.90
5364;DHT22;2705;41.410;2.160;2024-03-02T11:31:16;17.60;99.90
5364;DHT22;2705;41.410;2.160;2024-03-02T11:33:47;17.70;99.90
5364;DHT22;2705;41.410;2.160;2024-03-02T11:36:17;17.80;99.90
5364;DHT22;2705;41.410;2.160;2024-03-02T11:38:45;17.70;99.90
5364;DHT22;2705;41.410;2.160;2024-03-02T11:41:15;17.80;99.90
5364;DHT22;2705;41.410;2.160;2024-03-02T11:43:45;18.00;99.90
5364;DHT22;2705;41.410;2.160;2024-03-02T11:46:14;18.10;99.90
5364;DHT22;2705;41.410;2.160;2024-03-02T11:48:43;18.20;99.90
5364;DHT22;2705;41.410;2.160;2024-03-02T11:51:13;18.40;99.90
5364;DHT22;2705;41.410;2.160;2024-03-02T11:53:42;18.30;99.90
5364;DHT22;2705;41.410;2.160;2024-03-02T11:56:12;18.20;99.90
5364;DHT22;2705;41.410;2.160;2024-03-02T11:58:42;18.00;99.90
5364;DHT22;2705;41.410;2.160;2024-03-02T12:01:11;18.20;99.90
5364;DHT22;2705;41.410;2.160;2024-03-02T12:03:41;18.50;99.90
5364;DHT22;2705;41.410;2.160;2024-03-02T12:06:10;18.40;99.90
5364;DHT22;2705;41.410;2.160;2024-03-02T12:08:41;18.60;99.90
5364;DHT22;2705;41.410;2.160;2024-03-02T12:11:12;18.50;99.90
5364;DHT22;2705;41.410;2.160;2024-03-02T12:13:51;18.10;99.90
5364;DHT22;2705;41.410;2.160;2024-03-02T12:16:24;17.80;99.90
5364;DHT22;2705;41.410;2.160;2024-03-02T12:18:54;17.60;99.90
5364;DHT22;2705;41.410;2.160;2024-03-02T12:21:23;17.50;99.90
5364;DHT22;2705;41.410;2.160;2024-03-02T12:23:54;17.30;99.90
5364;DHT22;2705;41.410;2.160;2024-03-02T12:26:23;17.20;99.90
5364;DHT22;2705;41.410;2.160;2024-03-02T12:28:52;17.30;99.90
5364;DHT22;2705;41.410;2.160;2024-03-02T12:31:21;17.40;99.90
5364;DHT22;2705;41.410;2.160;2024-03-02T12:33:50;17.00;99.90
5364;DHT22;2705;41.410;2.160;2024-03-02T12:36:18;17.10;99.90
5364;DHT22;2705;41.410;2.160;2024-03-02T12:38:47;17.40;99.90
5364;DHT22;2705;41.410;2.160;2024-03-02T12:41:19;17.30;99.90
5364;DHT22;2705;41.410;2.160;2024-03-02T12:43:48;17.30;99.90
5364;DHT22;2705;41.410;2.160;2024-03-02T12:46:17;17.30;99.90
5364;DHT22;2705;41.410;2.160;2024-03-02T12:48:46;17.10;99.90
5364;DHT22;2705;41.410;2.160;2024-03-02T12:51:14;17.40;99.90
5364;DHT22;2705;41.410;2.160;2024-03-02T12:53:43;17.40;99.90
5364;DHT22;2705;41.410;2.160;2024-03-02T12:56:12;17.50;99.90
5364;DHT22;2705;41.410;2.160;2024-03-02T12:58:42;17.40;99.90
5364;DHT22;2705;41.410;2.160;2024-03-02T13:01:11;17.20;99.90
5364;DHT22;2705;41.410;2.160;2024-03-02T13:03:42;17.00;99.90
5364;DHT22;2705;41.410;2.160;2024-03-02T13:06:11;16.90;99.90
5364;DHT22;2705;41.410;2.160;2024-03-02T13:08:39;16.80;99.90
5364;DHT22;2705;41.410;2.160;2024-03-02T13:11:08;16.80;99.90
5364;DHT22;2705;41.410;2.160;2024-03-02T13:13:38;16.90;99.90
5364;DHT22;2705;41.410;2.160;2024-03-02T13:16:11;16.70;99.90
5364;DHT22;2705;41.410;2.160;2024-03-02T13:18:40;16.80;99.90
5364;DHT22;2705;41.410;2.160;2024-03-02T13:21:09;17.10;99.90
5364;DHT22;2705;41.410;2.160;2024-03-02T13:23:38;16.90;99.90
5364;DHT22;2705;41.410;2.160;2024-03-02T13:26:07;16.90;99.90
5364;DHT22;2705;41.410;2.160;2024-03-02T13:28:37;17.00;99.90
5364;DHT22;2705;41.410;2.160;2024-03-02T13:31:06;17.20;99.90
5364;DHT22;2705;41.410;2.160;2024-03-02T13:33:36;16.90;99.90
5364;DHT22;2705;41.410;2.160;2024-03-02T13:36:06;17.00;99.90
5364;DHT22;2705;41.410;2.160;2024-03-02T13:38:34;16.80;99.90
5364;DHT22;2705;41.410;2.160;2024-03-02T13:41:03;16.80;99.90
5364;DHT22;2705;41.410;2.160;2024-03-02T13:43:32;16.90;99.90
5364;DHT22;2705;41.410;2.160;2024-03-02T13:46:02;17.10;99.90
5364;DHT22;2705;41.410;2.160;2024-03-02T13:48:31;17.10;99.90
5364;DHT22;2705;41.410;2.160;2024-03-02T13:51:02;17.10;99.90
5364;DHT22;2705;41.410;2.160;2024-03-02T13:53:31;16.70;99.90
5364;DHT22;2705;41.410;2.160;2024-03-02T13:56:00;16.80;99.90
5364;DHT22;2705;41.410;2.160;2024-03-02T13:58:29;17.00;99.90
5364;DHT22;2705;41.410;2.160;2024-03-02T14:00:58;17.20;99.90
5364;DHT22;2705;41.410;2.160;2024-03-02T14:03:52;17.30;99.90
5364;DHT22;2705;41.410;2.160;2024-03-02T14:06:23;16.90;99.90
5364;DHT22;2705;41.410;2.160;2024-03-02T14:08:54;16.80;99.90
5364;DHT22;2705;41.410;2.160;2024-03-02T14:11:23;17.20;99.90
5364;DHT22;2705;41.410;2.160;2024-03-02T14:13:51;17.30;99.90
5364;DHT22;2705;41.410;2.160;2024-03-02T14:16:21;17.10;99.90
5364;DHT22;2705;41.410;2.160;2024-03-02T14:18:50;16.80;99.90
5364;DHT22;2705;41.410;2.160;2024-03-02T14:21:19;16.80;99.90
5364;DHT22;2705;41.410;2.160;2024-03-02T14:23:49;17.00;99.90
5364;DHT22;2705;41.410;2.160;2024-03-02T14:26:18;16.70;99.90
5364;DHT22;2705;41.410;2.160;2024-03-02T14:28:46;16.50;99.90
5364;DHT22;2705;41.410;2.160;2024-03-02T14:31:18;16.40;99.90
5364;DHT22;2705;41.410;2.160;2024-03-02T14:33:47;16.40;99.90
5364;DHT22;2705;41.410;2.160;2024-03-02T14:36:16;16.60;99.90
5364;DHT22;2705;41.410;2.160;2024-03-02T14:38:45;16.80;99.90
5364;DHT22;2705;41.410;2.160;2024-03-02T14:41:16;16.70;99.90
5364;DHT22;2705;41.410;2.160;2024-03-02T14:43:45;16.70;99.90
5364;DHT22;2705;41.410;2.160;2024-03-02T14:46:14;16.70;99.90
5364;DHT22;2705;41.410;2.160;2024-03-02T14:48:44;16.50;99.90
5364;DHT22;2705;41.410;2.160;2024-03-02T14:51:14;16.60;99.90
5364;DHT22;2705;41.410;2.160;2024-03-02T14:53:43;16.60;99.90
5364;DHT22;2705;41.410;2.160;2024-03-02T14:56:12;16.50;99.90
5364;DHT22;2705;41.410;2.160;2024-03-02T14:58:42;16.70;99.90
5364;DHT22;2705;41.410;2.160;2024-03-02T15:01:16;16.80;99.90
5364;DHT22;2705;41.410;2.160;2024-03-02T15:03:48;16.70;99.90
5364;DHT22;2705;41.410;2.160;2024-03-02T15:06:18;16.50;99.90
5364;DHT22;2705;41.410;2.160;2024-03-02T15:08:47;16.30;99.90
5364;DHT22;2705;41.410;2.160;2024-03-02T15:11:16;16.30;99.90
5364;DHT22;2705;41.410;2.160;2024-03-02T15:13:46;16.60;99.90
5364;DHT22;2705;41.410;2.160;2024-03-02T15:16:15;16.60;99.90
5364;DHT22;2705;41.410;2.160;2024-03-02T15:18:45;16.70;99.90
5364;DHT22;2705;41.410;2.160;2024-03-02T15:21:14;17.00;99.90
5364;DHT22;2705;41.410;2.160;2024-03-02T15:23:43;17.10;99.90
5364;DHT22;2705;41.410;2.160;2024-03-02T15:26:16;17.10;99.90
5364;DHT22;2705;41.410;2.160;2024-03-02T15:28:46;17.20;99.90
5364;DHT22;2705;41.410;2.160;2024-03-02T15:31:15;17.10;99.90
5364;DHT22;2705;41.410;2.160;2024-03-02T15:33:46;17.10;99.90
5364;DHT22;2705;41.410;2.160;2024-03-02T15:36:16;16.90;99.90
5364;DHT22;2705;41.410;2.160;2024-03-02T15:38:45;16.80;99.90
5364;DHT22;2705;41.410;2.160;2024-03-02T15:41:14;16.80;99.90
5364;DHT22;2705;41.410;2.160;2024-03-02T15:43:43;16.80;99.90
5364;DHT22;2705;41.410;2.160;2024-03-02T15:46:16;16.80;99.90
5364;DHT22;2705;41.410;2.160;2024-03-02T15:48:45;16.70;99.90
5364;DHT22;2705;41.410;2.160;2024-03-02T15:51:14;16.50;99.90
5364;DHT22;2705;41.410;2.160;2024-03-02T15:53:44;16.60;99.90
5364;DHT22;2705;41.410;2.160;2024-03-02T15:56:14;16.60;99.90
5364;DHT22;2705;41.410;2.160;2024-03-02T15:58:43;16.40;99.90
5364;DHT22;2705;41.410;2.160;2024-03-02T16:04:08;16.20;99.90
5364;DHT22;2705;41.410;2.160;2024-03-02T16:06:37;16.30;99.90
5364;DHT22;2705;41.410;2.160;2024-03-02T16:09:06;16.40;99.90
5364;DHT22;2705;41.410;2.160;2024-03-02T16:11:37;16.40;99.90
5364;DHT22;2705;41.410;2.160;2024-03-02T16:14:07;16.10;99.90
5364;DHT22;2705;41.410;2.160;2024-03-02T16:16:36;16.10;99.90
5364;DHT22;2705;41.410;2.160;2024-03-02T16:19:05;16.30;99.90
5364;DHT22;2705;41.410;2.160;2024-03-02T16:21:48;16.10;99.90